Time;durP1;ratioP1;P1;durP2;ratioP2;P2;SDS_P1;SDS_P2;PMS_P1;PMS_P2;Temp;Humidity;BMP_temperature;BMP_pressure;BME280_temperature;BME280_humidity;BME280_pressure;Samples;Min_cycle;Max_cycle;Signal;HPM_P1;HPM_P2
2023/12/31 00:01:33;;;;;;;5.75;2.30;;;8.80;99.90;;;;;;4118423;28;20056;-80
2023/12/31 00:03:34;;;;;;;5.10;1.85;;;8.70;99.90;;;;;;4117417;28;20128;-80
2023/12/31 00:05:35;;;;;;;5.07;1.98;;;9.00;99.90;;;;;;4118681;28;20054;-81
2023/12/31 00:07:36;;;;;;;7.05;2.13;;;8.90;99.90;;;;;;4118271;28;20199;-81
2023/12/31 00:09:39;;;;;;;4.82;1.70;;;9.10;99.90;;;;;;4120382;28;20528;-80
2023/12/31 00:11:39;;;;;;;4.00;2.05;;;8.50;99.90;;;;;;4120256;28;20499;-80
2023/12/31 00:13:40;;;;;;;3.70;1.70;;;8.40;99.90;;;;;;4122801;28;20097;-80
2023/12/31 00:15:40;;;;;;;7.65;1.70;;;8.90;99.90;;;;;;4120037;28;20058;-80
2023/12/31 00:17:41;;;;;;;4.47;1.98;;;8.50;99.90;;;;;;4129502;28;20042;-79
2023/12/31 00:19:42;;;;;;;3.35;1.90;;;9.20;99.90;;;;;;4137055;28;20051;-81
2023/12/31 00:21:42;;;;;;;3.22;1.75;;;9.00;99.90;;;;;;4139057;28;20042;-81
2023/12/31 00:23:44;;;;;;;5.75;1.77;;;8.60;99.90;;;;;;4138406;28;20407;-80
2023/12/31 00:25:45;;;;;;;2.10;1.63;;;8.50;99.90;;;;;;4126413;28;20066;-80
2023/12/31 00:27:46;;;;;;;6.05;1.85;;;8.50;99.90;;;;;;4143178;28;20144;-81
2023/12/31 00:29:46;;;;;;;3.78;1.75;;;8.60;99.90;;;;;;4142650;28;20150;-81
2023/12/31 00:31:48;;;;;;;5.22;1.80;;;8.60;99.90;;;;;;4133652;28;20062;-81
2023/12/31 00:33:50;;;;;;;2.05;1.35;;;8.60;99.90;;;;;;4124568;28;20131;-80
2023/12/31 00:35:51;;;;;;;3.92;2.17;;;8.50;99.90;;;;;;4123943;28;20051;-81
2023/12/31 00:37:52;;;;;;;4.53;1.70;;;8.60;99.90;;;;;;4121895;28;20093;-81
2023/12/31 00:39:53;;;;;;;2.83;1.60;;;8.80;99.90;;;;;;4100894;29;20413;-81
2023/12/31 00:41:54;;;;;;;3.45;1.42;;;9.00;99.90;;;;;;4117594;28;20079;-81
2023/12/31 00:43:54;;;;;;;5.78;1.60;;;8.90;99.90;;;;;;4117800;28;20046;-81
2023/12/31 00:45:55;;;;;;;3.33;1.40;;;9.00;99.90;;;;;;4117783;28;20050;-81
2023/12/31 00:47:56;;;;;;;4.88;1.38;;;8.60;99.90;;;;;;4117491;28;20046;-81
2023/12/31 00:49:56;;;;;;;4.05;1.52;;;8.60;99.90;;;;;;4117839;28;20047;-81
2023/12/31 00:51:57;;;;;;;2.20;1.30;;;9.10;99.90;;;;;;4127657;28;20129;-81
2023/12/31 00:53:58;;;;;;;2.25;1.30;;;9.00;99.90;;;;;;4133665;28;20074;-81
2023/12/31 00:55:59;;;;;;;3.05;1.60;;;8.60;99.90;;;;;;4131957;28;20034;-81
2023/12/31 00:58:00;;;;;;;2.75;1.65;;;9.10;99.90;;;;;;4116279;28;20042;-81
2023/12/31 01:00:01;;;;;;;5.30;1.23;;;8.80;99.90;;;;;;4133554;28;20125;-82
2023/12/31 01:02:01;;;;;;;3.53;1.98;;;8.70;99.90;;;;;;4133511;28;20101;-81
2023/12/31 01:04:03;;;;;;;4.60;1.67;;;8.60;99.90;;;;;;4133411;28;20076;-81
2023/12/31 01:06:05;;;;;;;3.88;1.63;;;8.50;99.90;;;;;;4133348;28;20061;-81
2023/12/31 01:08:06;;;;;;;5.28;2.08;;;8.60;99.90;;;;;;4133585;28;20050;-81
2023/12/31 01:10:07;;;;;;;3.53;1.80;;;8.50;99.90;;;;;;4133562;28;20129;-81
2023/12/31 01:12:07;;;;;;;4.03;1.35;;;8.50;99.90;;;;;;4122390;28;20051;-81
2023/12/31 01:14:08;;;;;;;3.05;1.50;;;9.10;99.90;;;;;;4117023;28;20624;-81
2023/12/31 01:16:09;;;;;;;4.00;1.73;;;9.00;99.90;;;;;;4117119;28;20054;-81
2023/12/31 01:18:10;;;;;;;4.05;1.30;;;8.50;99.90;;;;;;4117216;28;20046;-81
2023/12/31 01:20:11;;;;;;;4.22;1.58;;;8.50;99.90;;;;;;4116294;28;20560;-81
2023/12/31 01:22:12;;;;;;;4.03;1.55;;;8.50;99.90;;;;;;4117075;28;20121;-81
2023/12/31 01:24:12;;;;;;;6.47;1.73;;;8.30;99.90;;;;;;4116793;28;20046;-81
2023/12/31 01:26:13;;;;;;;5.28;1.60;;;8.80;99.90;;;;;;4115834;28;20407;-81
2023/12/31 01:28:15;;;;;;;6.72;2.15;;;8.60;99.90;;;;;;4116563;28;20549;-81
2023/12/31 01:30:16;;;;;;;2.75;1.70;;;9.10;99.90;;;;;;4116937;28;20053;-81
2023/12/31 01:32:16;;;;;;;2.63;1.30;;;8.40;99.90;;;;;;4127940;28;20042;-81
2023/12/31 01:34:17;;;;;;;2.95;1.40;;;8.70;99.90;;;;;;4132933;28;20560;-82
2023/12/31 01:36:20;;;;;;;5.00;1.30;;;8.60;99.90;;;;;;4132447;28;20046;-81
2023/12/31 01:38:21;;;;;;;3.40;1.35;;;8.40;99.90;;;;;;4132821;28;20046;-81
2023/12/31 01:40:23;;;;;;;2.17;1.40;;;8.50;99.90;;;;;;4132856;28;20444;-81
2023/12/31 01:42:24;;;;;;;2.40;1.30;;;8.60;99.90;;;;;;4132314;28;20070;-81
2023/12/31 01:44:24;;;;;;;3.22;1.48;;;8.40;99.90;;;;;;4132431;28;20046;-81
2023/12/31 01:46:30;;;;;;;3.67;1.55;;;8.60;99.90;;;;;;4125836;28;20065;-81
2023/12/31 01:48:32;;;;;;;3.53;1.75;;;8.50;99.90;;;;;;4116568;28;20089;-81
2023/12/31 01:50:33;;;;;;;3.88;1.50;;;8.30;99.90;;;;;;4116804;28;20062;-81
2023/12/31 01:52:34;;;;;;;2.25;1.00;;;8.30;99.90;;;;;;4130502;28;20042;-81
2023/12/31 01:54:35;;;;;;;2.05;1.38;;;8.60;99.90;;;;;;4132221;28;20056;-81
2023/12/31 01:56:38;;;;;;;2.85;1.40;;;8.30;99.90;;;;;;4131924;28;20130;-81
2023/12/31 01:58:39;;;;;;;3.70;1.10;;;8.50;99.90;;;;;;4132583;28;20038;-81
2023/12/31 02:00:41;;;;;;;2.88;1.48;;;8.20;99.90;;;;;;4132381;28;20046;-81
2023/12/31 02:02:46;;;;;;;2.50;1.27;;;8.30;99.90;;;;;;4132569;28;20051;-81
2023/12/31 02:04:48;;;;;;;5.40;1.92;;;8.20;99.90;;;;;;4132036;28;20382;-81
2023/12/31 02:06:48;;;;;;;4.55;1.00;;;8.50;99.90;;;;;;4132853;28;20054;-81
2023/12/31 02:08:49;;;;;;;3.03;1.52;;;8.70;99.90;;;;;;4132571;28;20046;-80
2023/12/31 02:10:51;;;;;;;2.13;1.10;;;8.70;99.90;;;;;;4132546;28;20038;-80
2023/12/31 02:12:52;;;;;;;2.25;0.85;;;8.20;99.90;;;;;;4132166;28;20046;-80
2023/12/31 02:14:53;;;;;;;2.25;1.10;;;8.20;99.90;;;;;;4132757;28;20052;-80
2023/12/31 02:16:55;;;;;;;4.25;1.40;;;8.20;99.90;;;;;;4133110;28;20487;-80
2023/12/31 02:18:55;;;;;;;1.80;1.20;;;8.20;99.90;;;;;;4131769;28;20487;-80
2023/12/31 02:20:56;;;;;;;2.92;1.13;;;8.20;99.90;;;;;;4132061;28;20125;-80
2023/12/31 02:23:00;;;;;;;1.42;0.98;;;8.30;99.90;;;;;;4131959;28;20034;-80
2023/12/31 02:25:07;;;;;;;2.05;0.90;;;8.20;99.90;;;;;;4132571;28;20101;-81
2023/12/31 02:27:08;;;;;;;5.28;1.27;;;8.20;99.90;;;;;;4131957;28;20080;-81
2023/12/31 02:29:10;;;;;;;1.85;1.05;;;8.70;99.90;;;;;;4132706;28;20042;-80
2023/12/31 02:31:10;;;;;;;2.45;1.13;;;8.90;99.90;;;;;;4131903;28;20065;-81
2023/12/31 02:33:11;;;;;;;6.13;1.10;;;8.60;99.90;;;;;;4132343;28;20050;-81
2023/12/31 02:35:12;;;;;;;2.70;1.42;;;8.70;99.90;;;;;;4132405;28;20042;-81
2023/12/31 02:37:12;;;;;;;3.38;1.05;;;8.50;99.90;;;;;;4131932;28;20122;-79
2023/12/31 02:39:13;;;;;;;2.80;1.13;;;8.50;99.90;;;;;;4128330;28;20042;-80
2023/12/31 02:41:14;;;;;;;3.35;1.17;;;8.10;99.90;;;;;;4132642;28;20054;-81
2023/12/31 02:43:14;;;;;;;3.10;1.20;;;8.60;99.90;;;;;;4132324;28;20129;-81
2023/12/31 02:45:15;;;;;;;2.45;1.10;;;8.60;99.90;;;;;;4132238;28;20479;-81
2023/12/31 02:47:16;;;;;;;3.15;1.58;;;8.20;99.90;;;;;;4131946;28;20038;-81
2023/12/31 02:49:16;;;;;;;1.67;1.08;;;8.00;99.90;;;;;;4135097;28;20047;-80
2023/12/31 02:51:17;;;;;;;2.63;1.20;;;8.50;99.90;;;;;;4135351;28;20510;-81
2023/12/31 02:53:18;;;;;;;4.20;1.35;;;7.90;99.90;;;;;;4135457;28;20051;-80
2023/12/31 02:55:19;;;;;;;3.63;1.45;;;8.70;99.90;;;;;;4135318;28;20050;-81
2023/12/31 02:57:22;;;;;;;4.63;2.08;;;7.90;99.90;;;;;;4135687;28;20480;-80
2023/12/31 02:59:22;;;;;;;5.70;1.52;;;7.90;99.90;;;;;;4135455;28;20121;-80
2023/12/31 03:01:23;;;;;;;6.25;1.30;;;7.90;99.90;;;;;;4136223;28;20054;-81
2023/12/31 03:03:23;;;;;;;1.73;1.17;;;8.30;99.90;;;;;;4135351;28;20057;-81
2023/12/31 03:05:24;;;;;;;3.65;1.45;;;7.90;99.90;;;;;;4134760;28;20046;-81
2023/12/31 03:07:25;;;;;;;4.55;1.63;;;8.40;99.90;;;;;;4135133;28;20050;-80
2023/12/31 03:09:25;;;;;;;1.88;1.45;;;7.80;99.90;;;;;;4135303;28;20057;-80
2023/12/31 03:11:26;;;;;;;3.67;1.60;;;7.80;99.90;;;;;;4135296;28;20049;-80
2023/12/31 03:13:28;;;;;;;7.00;1.50;;;8.10;99.90;;;;;;4135591;28;20501;-80
2023/12/31 03:15:28;;;;;;;3.55;1.60;;;7.70;99.90;;;;;;4135481;28;20065;-81
2023/12/31 03:17:29;;;;;;;5.68;2.10;;;8.30;99.90;;;;;;4135334;28;20475;-81
2023/12/31 03:19:35;;;;;;;4.10;1.85;;;7.80;99.90;;;;;;4134626;28;20131;-81
2023/12/31 03:21:36;;;;;;;3.63;1.85;;;8.00;99.90;;;;;;4134823;28;20038;-81
2023/12/31 03:23:37;;;;;;;4.43;1.27;;;8.20;99.90;;;;;;4134767;28;20050;-80
2023/12/31 03:25:37;;;;;;;4.72;1.30;;;7.90;99.90;;;;;;4135164;28;20503;-81
2023/12/31 03:27:38;;;;;;;3.75;2.25;;;8.40;99.90;;;;;;4134819;28;20121;-80
2023/12/31 03:29:39;;;;;;;4.63;1.65;;;8.30;99.90;;;;;;4135171;28;20149;-80
2023/12/31 03:31:40;;;;;;;3.50;1.20;;;8.20;99.90;;;;;;4134915;28;20113;-80
2023/12/31 03:33:41;;;;;;;3.17;1.77;;;8.50;99.90;;;;;;4134892;28;20050;-81
2023/12/31 03:35:42;;;;;;;3.28;1.38;;;7.70;99.90;;;;;;4135118;28;20046;-81
2023/12/31 03:37:46;;;;;;;4.30;1.17;;;7.70;99.90;;;;;;4135309;28;20043;-81
2023/12/31 03:39:50;;;;;;;2.33;1.25;;;8.30;99.90;;;;;;4134768;28;20042;-81
2023/12/31 03:41:51;;;;;;;1.30;1.05;;;7.70;99.90;;;;;;4134838;28;20062;-81
2023/12/31 03:43:51;;;;;;;2.70;1.45;;;8.30;99.90;;;;;;4117751;28;20054;-81
2023/12/31 03:45:52;;;;;;;5.10;1.50;;;8.20;99.90;;;;;;4134593;28;20446;-81
2023/12/31 03:47:53;;;;;;;2.13;1.40;;;7.80;99.90;;;;;;4133627;28;20045;-81
2023/12/31 03:49:53;;;;;;;4.07;1.10;;;7.70;99.90;;;;;;4101342;29;20094;-81
2023/12/31 03:51:55;;;;;;;2.92;1.40;;;8.00;99.90;;;;;;4118787;28;20057;-81
2023/12/31 03:53:56;;;;;;;2.40;1.10;;;8.00;99.90;;;;;;4118478;28;20058;-80
2023/12/31 03:55:57;;;;;;;3.30;1.33;;;7.80;99.90;;;;;;4120909;28;20100;-80
2023/12/31 03:57:58;;;;;;;2.50;1.10;;;7.70;99.90;;;;;;4134656;28;20046;-81
2023/12/31 03:59:58;;;;;;;3.10;1.40;;;7.70;99.90;;;;;;4133853;28;20052;-80
2023/12/31 04:01:59;;;;;;;5.72;1.85;;;7.70;99.90;;;;;;4134529;28;20053;-81
2023/12/31 04:04:00;;;;;;;2.50;1.13;;;7.70;99.90;;;;;;4112238;28;20571;-81
2023/12/31 04:06:00;;;;;;;2.00;0.98;;;7.70;99.90;;;;;;4118266;28;20050;-81
2023/12/31 04:08:01;;;;;;;2.35;1.38;;;8.10;99.90;;;;;;4118275;28;20097;-80
2023/12/31 04:10:01;;;;;;;4.00;1.30;;;7.70;99.90;;;;;;4117592;28;20054;-81
2023/12/31 04:12:04;;;;;;;2.03;1.15;;;7.70;99.90;;;;;;4100946;29;20496;-80
2023/12/31 04:14:05;;;;;;;2.80;1.23;;;7.60;99.90;;;;;;4124111;28;20046;-81
2023/12/31 04:16:08;;;;;;;2.83;1.10;;;7.70;99.90;;;;;;4135025;28;20046;-81
2023/12/31 04:18:09;;;;;;;3.03;1.30;;;7.70;99.90;;;;;;4134612;28;20046;-80
2023/12/31 04:20:10;;;;;;;1.77;1.45;;;7.70;99.90;;;;;;4132566;28;20065;-80
2023/12/31 04:22:11;;;;;;;2.47;1.17;;;7.70;99.90;;;;;;4133957;28;20054;-80
2023/12/31 04:24:11;;;;;;;6.95;1.92;;;7.70;99.90;;;;;;4133938;28;20034;-80
2023/12/31 04:26:12;;;;;;;1.95;0.88;;;7.70;99.90;;;;;;4134205;28;20050;-80
2023/12/31 04:28:14;;;;;;;2.10;1.25;;;7.70;99.90;;;;;;4132806;28;20085;-80
2023/12/31 04:30:14;;;;;;;3.08;1.00;;;7.90;99.90;;;;;;4133692;28;20499;-81
2023/12/31 04:32:15;;;;;;;1.70;1.23;;;7.70;99.90;;;;;;4133839;28;20093;-80
2023/12/31 04:34:16;;;;;;;2.88;1.30;;;7.70;99.90;;;;;;4134220;28;20403;-80
2023/12/31 04:36:16;;;;;;;7.18;1.00;;;7.70;99.90;;;;;;4134145;28;20080;-80
2023/12/31 04:38:17;;;;;;;1.65;0.90;;;7.70;99.90;;;;;;4116400;28;20051;-80
2023/12/31 04:40:17;;;;;;;3.05;1.02;;;7.70;99.90;;;;;;4133887;28;20046;-80
2023/12/31 04:42:18;;;;;;;2.17;1.00;;;8.20;99.90;;;;;;4133647;28;20042;-81
2023/12/31 04:44:20;;;;;;;2.03;0.90;;;7.70;99.90;;;;;;4133818;28;20470;-80
2023/12/31 04:46:20;;;;;;;2.08;0.98;;;8.00;99.90;;;;;;4133590;28;20046;-81
2023/12/31 04:48:23;;;;;;;2.83;1.40;;;7.70;99.90;;;;;;4131863;28;20046;-81
2023/12/31 04:50:24;;;;;;;3.25;1.00;;;8.20;99.90;;;;;;4117041;28;20050;-81
2023/12/31 04:52:24;;;;;;;1.70;0.85;;;8.20;99.90;;;;;;4127397;28;20053;-80
2023/12/31 04:54:25;;;;;;;2.88;1.20;;;7.70;99.90;;;;;;4133580;28;20141;-81
2023/12/31 04:56:26;;;;;;;2.33;1.13;;;7.70;99.90;;;;;;4133464;28;20101;-81
2023/12/31 04:58:27;;;;;;;2.17;1.10;;;8.40;99.90;;;;;;4133333;28;20125;-78
2023/12/31 05:00:28;;;;;;;1.75;1.17;;;7.70;99.90;;;;;;4133575;28;20140;-79
2023/12/31 05:02:28;;;;;;;2.85;1.10;;;7.70;99.90;;;;;;4134039;28;20068;-80
2023/12/31 05:04:30;;;;;;;1.83;1.10;;;7.70;99.90;;;;;;4133732;28;20046;-81
2023/12/31 05:06:31;;;;;;;1.88;1.10;;;7.70;99.90;;;;;;4133283;28;20092;-81
2023/12/31 05:08:32;;;;;;;4.28;1.30;;;7.90;99.90;;;;;;4115957;28;20134;-81
2023/12/31 05:10:36;;;;;;;4.18;1.33;;;7.70;99.90;;;;;;4133167;28;20431;-80
2023/12/31 05:12:38;;;;;;;2.15;1.13;;;7.80;99.90;;;;;;4132484;28;20519;-78
2023/12/31 05:14:39;;;;;;;2.28;1.20;;;7.60;99.90;;;;;;4122540;28;20451;-79
2023/12/31 05:16:40;;;;;;;2.90;1.45;;;7.70;99.90;;;;;;4117269;28;20109;-80
2023/12/31 05:18:42;;;;;;;2.08;1.25;;;7.60;99.90;;;;;;4117121;28;20098;-80
2023/12/31 05:20:43;;;;;;;2.70;1.48;;;7.60;99.90;;;;;;4117018;28;20059;-80
2023/12/31 05:22:43;;;;;;;2.60;1.17;;;7.70;99.90;;;;;;4108830;28;20045;-81
2023/12/31 05:24:44;;;;;;;2.30;1.33;;;8.20;99.90;;;;;;4133275;28;20050;-81
2023/12/31 05:26:45;;;;;;;3.03;1.25;;;7.70;99.90;;;;;;4132645;28;20046;-81
2023/12/31 05:28:46;;;;;;;4.10;1.70;;;7.70;99.90;;;;;;4132993;28;20136;-81
2023/12/31 05:30:46;;;;;;;5.03;1.23;;;7.70;99.90;;;;;;4142304;28;20106;-81
2023/12/31 05:32:47;;;;;;;5.60;1.92;;;7.70;99.90;;;;;;4137989;28;20038;-81
2023/12/31 05:34:51;;;;;;;3.28;1.40;;;7.80;99.90;;;;;;4137439;28;20053;-81
2023/12/31 05:36:51;;;;;;;2.13;1.13;;;8.50;99.90;;;;;;4137537;28;20046;-80
2023/12/31 05:38:53;;;;;;;3.55;1.40;;;7.70;99.90;;;;;;4137353;28;20475;-81
2023/12/31 05:40:54;;;;;;;2.40;1.25;;;7.70;99.90;;;;;;4137717;28;20042;-81
2023/12/31 05:42:54;;;;;;;4.03;1.45;;;7.70;99.90;;;;;;4136852;28;20398;-81
2023/12/31 05:44:55;;;;;;;4.20;1.70;;;7.70;99.90;;;;;;4122864;28;20214;-82
2023/12/31 05:46:55;;;;;;;1.65;1.30;;;7.70;99.90;;;;;;4117010;28;20142;-80
2023/12/31 05:48:56;;;;;;;3.80;1.45;;;7.70;99.90;;;;;;4116505;28;20105;-81
2023/12/31 05:50:58;;;;;;;6.32;1.40;;;8.40;99.90;;;;;;4129142;28;20046;-81
2023/12/31 05:52:59;;;;;;;3.95;1.63;;;8.30;99.90;;;;;;4132862;28;20053;-81
2023/12/31 05:54:59;;;;;;;6.57;1.75;;;8.30;99.90;;;;;;4133039;28;20050;-80
2023/12/31 05:57:00;;;;;;;4.85;1.40;;;8.40;99.90;;;;;;4132756;28;20053;-81
2023/12/31 05:59:01;;;;;;;1.92;1.35;;;7.90;99.90;;;;;;4132591;28;20117;-81
2023/12/31 06:01:02;;;;;;;4.07;2.10;;;7.80;99.90;;;;;;4131572;28;20046;-80
2023/12/31 06:03:03;;;;;;;3.35;1.55;;;7.70;99.90;;;;;;4132823;28;20351;-81
2023/12/31 06:05:05;;;;;;;3.85;1.70;;;7.80;99.90;;;;;;4132493;28;20051;-81
2023/12/31 06:07:05;;;;;;;2.53;1.48;;;7.80;99.90;;;;;;4132728;28;20506;-82
2023/12/31 06:09:07;;;;;;;3.00;1.30;;;7.70;99.90;;;;;;4132904;28;20117;-81
2023/12/31 06:11:09;;;;;;;4.43;1.55;;;7.80;99.90;;;;;;4132391;28;20050;-81
2023/12/31 06:13:09;;;;;;;3.95;1.40;;;7.80;99.90;;;;;;4132850;28;20519;-81
2023/12/31 06:15:11;;;;;;;2.20;1.40;;;8.00;99.90;;;;;;4115037;28;20134;-80
2023/12/31 06:17:11;;;;;;;4.15;2.00;;;7.80;99.90;;;;;;4132549;28;20641;-80
2023/12/31 06:19:12;;;;;;;7.53;1.60;;;7.80;99.90;;;;;;4132638;28;20054;-80
2023/12/31 06:21:13;;;;;;;3.60;2.00;;;7.90;99.90;;;;;;4132092;28;20046;-80
2023/12/31 06:23:14;;;;;;;3.72;1.50;;;7.80;99.90;;;;;;4115332;28;20038;-81
2023/12/31 06:25:15;;;;;;;5.07;1.52;;;8.30;99.90;;;;;;4132645;28;20049;-80
2023/12/31 06:27:16;;;;;;;2.63;1.45;;;7.80;99.90;;;;;;4132539;28;20100;-80
2023/12/31 06:29:18;;;;;;;2.95;2.10;;;8.50;99.90;;;;;;4115159;28;20058;-80
2023/12/31 06:31:18;;;;;;;2.67;1.52;;;8.00;99.90;;;;;;4132212;28;20073;-81
2023/12/31 06:33:20;;;;;;;3.38;1.45;;;7.80;99.90;;;;;;4132615;28;20050;-80
2023/12/31 06:35:22;;;;;;;3.17;1.45;;;7.90;99.90;;;;;;4132433;28;20081;-80
2023/12/31 06:37:22;;;;;;;3.55;1.50;;;8.00;99.90;;;;;;4132420;28;20090;-81
2023/12/31 06:39:23;;;;;;;2.00;1.20;;;8.00;99.90;;;;;;4132179;28;20541;-81
2023/12/31 06:41:24;;;;;;;3.47;1.73;;;8.50;99.90;;;;;;4132389;28;20101;-81
2023/12/31 06:43:26;;;;;;;4.57;1.73;;;7.90;99.90;;;;;;4131921;28;20450;-81
2023/12/31 06:45:28;;;;;;;3.10;1.52;;;8.50;99.90;;;;;;4131677;28;20407;-80
2023/12/31 06:47:28;;;;;;;2.00;1.40;;;7.90;99.90;;;;;;4132052;28;20055;-81
2023/12/31 06:49:30;;;;;;;2.45;1.27;;;8.60;99.90;;;;;;4132548;28;20061;-81
2023/12/31 06:51:30;;;;;;;2.53;1.48;;;7.90;99.90;;;;;;4127749;28;20546;-81
2023/12/31 06:53:33;;;;;;;2.42;1.67;;;7.90;99.90;;;;;;4116691;28;20433;-81
2023/12/31 06:55:35;;;;;;;2.95;2.10;;;8.00;99.90;;;;;;4116373;28;20778;-81
2023/12/31 06:57:36;;;;;;;2.42;1.30;;;8.50;99.90;;;;;;4130531;28;20050;-81
2023/12/31 06:59:37;;;;;;;5.43;1.77;;;8.00;99.90;;;;;;4131936;28;20060;-80
2023/12/31 07:01:37;;;;;;;2.83;1.48;;;8.00;99.90;;;;;;4132686;28;20070;-82
2023/12/31 07:03:38;;;;;;;2.85;1.27;;;7.90;99.90;;;;;;4116381;28;20074;-79
2023/12/31 07:05:38;;;;;;;3.50;1.27;;;8.40;99.90;;;;;;4116368;28;20054;-82
2023/12/31 07:07:40;;;;;;;2.90;1.50;;;8.50;99.90;;;;;;4116746;28;20106;-82
2023/12/31 07:09:42;;;;;;;2.35;1.40;;;8.50;99.90;;;;;;4124776;28;20039;-82
2023/12/31 07:11:42;;;;;;;2.50;1.33;;;8.30;99.90;;;;;;4128262;28;20045;-81
2023/12/31 07:13:43;;;;;;;3.15;1.63;;;8.00;99.90;;;;;;4128322;28;20042;-79
2023/12/31 07:15:44;;;;;;;2.55;1.60;;;8.10;99.90;;;;;;4136892;28;20113;-81
2023/12/31 07:17:45;;;;;;;2.53;1.40;;;8.50;99.90;;;;;;4133162;28;20042;-79
2023/12/31 07:19:45;;;;;;;3.53;1.48;;;8.10;99.90;;;;;;4122357;28;20109;-80
2023/12/31 07:21:46;;;;;;;4.40;1.10;;;8.00;99.90;;;;;;4128342;28;20046;-80
2023/12/31 07:23:47;;;;;;;3.63;1.10;;;8.10;99.90;;;;;;4133483;28;20125;-80
2023/12/31 07:25:47;;;;;;;3.17;1.50;;;8.90;99.90;;;;;;4133314;28;20042;-80
2023/12/31 07:27:48;;;;;;;3.75;1.38;;;8.30;99.90;;;;;;4133246;28;20077;-80
2023/12/31 07:29:49;;;;;;;5.80;1.88;;;8.70;99.90;;;;;;4115586;28;20133;-80
2023/12/31 07:31:49;;;;;;;1.90;1.25;;;8.10;99.90;;;;;;4133342;28;20046;-81
2023/12/31 07:33:50;;;;;;;3.65;1.33;;;8.10;99.90;;;;;;4133520;28;20074;-81
2023/12/31 07:35:51;;;;;;;1.50;1.27;;;8.20;99.90;;;;;;4135327;28;20046;-81
2023/12/31 07:37:52;;;;;;;3.92;1.20;;;8.20;99.90;;;;;;4135485;28;20046;-81
2023/12/31 07:39:52;;;;;;;3.88;2.03;;;8.60;99.90;;;;;;4135269;28;20059;-81
2023/12/31 07:41:54;;;;;;;2.92;1.45;;;8.70;99.90;;;;;;4134933;28;20042;-81
2023/12/31 07:43:54;;;;;;;1.70;1.02;;;8.60;99.90;;;;;;4128853;28;20070;-80
2023/12/31 07:45:55;;;;;;;5.10;1.20;;;8.80;99.90;;;;;;4119128;28;20043;-80
2023/12/31 07:47:57;;;;;;;2.67;1.58;;;8.20;99.90;;;;;;4118948;28;20049;-80
2023/12/31 07:49:58;;;;;;;3.17;1.48;;;8.30;99.90;;;;;;4119035;28;20079;-81
2023/12/31 07:51:58;;;;;;;2.45;1.35;;;8.30;99.90;;;;;;4119090;28;20053;-80
2023/12/31 07:53:59;;;;;;;3.03;1.50;;;8.80;99.90;;;;;;4118580;28;20054;-79
2023/12/31 07:56:00;;;;;;;3.20;1.55;;;8.30;99.90;;;;;;4136755;28;20070;-79
2023/12/31 07:58:01;;;;;;;2.20;1.35;;;8.30;99.90;;;;;;4123003;28;20046;-80
2023/12/31 08:00:04;;;;;;;3.53;2.05;;;8.30;99.90;;;;;;4120700;28;20050;-80
2023/12/31 08:02:06;;;;;;;2.83;1.40;;;8.30;99.90;;;;;;4119894;28;20050;-81
2023/12/31 08:04:06;;;;;;;4.03;1.85;;;8.70;99.90;;;;;;4120029;28;20042;-80
2023/12/31 08:06:08;;;;;;;4.18;1.45;;;8.40;99.90;;;;;;4119508;28;20058;-80
2023/12/31 08:08:11;;;;;;;3.38;1.70;;;9.10;99.90;;;;;;4119695;28;20472;-80
2023/12/31 08:10:11;;;;;;;3.03;1.50;;;8.80;99.90;;;;;;4135116;28;20472;-80
2023/12/31 08:12:12;;;;;;;1.77;1.38;;;8.40;99.90;;;;;;4133890;28;20108;-80
2023/12/31 08:14:13;;;;;;;2.13;1.40;;;9.00;99.90;;;;;;4130446;28;20073;-80
2023/12/31 08:16:14;;;;;;;4.18;1.60;;;8.70;99.90;;;;;;4134479;28;20039;-80
2023/12/31 08:18:15;;;;;;;2.50;1.40;;;9.20;99.90;;;;;;4133176;28;20064;-80
2023/12/31 08:20:15;;;;;;;3.13;1.88;;;8.40;99.90;;;;;;4133246;28;20559;-80
2023/12/31 08:22:17;;;;;;;2.08;1.50;;;8.50;99.90;;;;;;4132846;28;20069;-80
2023/12/31 08:24:20;;;;;;;2.38;1.58;;;8.50;99.90;;;;;;4133999;28;20042;-80
2023/12/31 08:26:21;;;;;;;3.33;1.40;;;8.50;99.90;;;;;;4134423;28;20168;-80
2023/12/31 08:28:22;;;;;;;3.00;1.40;;;8.50;99.90;;;;;;4134022;28;20491;-79
2023/12/31 08:30:22;;;;;;;2.85;1.60;;;8.50;99.90;;;;;;4133492;28;20042;-80
2023/12/31 08:32:29;;;;;;;2.33;1.40;;;8.50;99.90;;;;;;4134156;28;20399;-79
2023/12/31 08:34:30;;;;;;;3.92;1.40;;;8.50;99.90;;;;;;4134002;28;20054;-80
2023/12/31 08:36:30;;;;;;;2.58;1.45;;;8.50;99.90;;;;;;4141500;28;20106;-80
2023/12/31 08:38:32;;;;;;;3.10;1.38;;;9.20;99.90;;;;;;4148597;28;20065;-80
2023/12/31 08:40:33;;;;;;;2.25;1.20;;;8.50;99.90;;;;;;4139612;28;20054;-81
2023/12/31 08:42:33;;;;;;;5.47;1.30;;;8.90;99.90;;;;;;4137337;28;20535;-81
2023/12/31 08:44:35;;;;;;;2.65;1.60;;;8.80;99.90;;;;;;4139611;28;20405;-82
2023/12/31 08:46:37;;;;;;;2.53;1.60;;;8.50;99.90;;;;;;4143976;28;20046;-80
2023/12/31 08:48:37;;;;;;;3.45;1.40;;;9.00;99.90;;;;;;4139756;28;20077;-80
2023/12/31 08:50:38;;;;;;;2.83;1.50;;;9.00;99.90;;;;;;4135438;28;20054;-80
2023/12/31 08:52:42;;;;;;;2.70;1.33;;;9.00;99.90;;;;;;4132102;28;20042;-80
2023/12/31 08:54:43;;;;;;;2.42;1.30;;;9.10;99.90;;;;;;4140312;28;20038;-80
2023/12/31 08:56:44;;;;;;;2.83;1.50;;;8.60;99.90;;;;;;4138383;28;20045;-80
2023/12/31 08:58:46;;;;;;;3.58;1.40;;;8.80;99.90;;;;;;4136390;28;20487;-80
2023/12/31 09:00:46;;;;;;;2.35;1.10;;;8.50;99.90;;;;;;4133861;28;20053;-80
2023/12/31 09:02:47;;;;;;;3.00;1.40;;;8.50;99.90;;;;;;4133589;28;20050;-81
2023/12/31 09:04:48;;;;;;;3.60;1.30;;;8.50;99.90;;;;;;4133571;28;20054;-80
2023/12/31 09:06:49;;;;;;;2.50;1.10;;;8.60;99.90;;;;;;4115859;28;20146;-80
2023/12/31 09:08:49;;;;;;;4.55;1.38;;;8.90;99.90;;;;;;4131980;28;20093;-80
2023/12/31 09:10:54;;;;;;;3.53;1.45;;;8.60;99.90;;;;;;4133339;28;20100;-81
2023/12/31 09:12:54;;;;;;;2.40;1.20;;;8.70;99.90;;;;;;4133449;28;20047;-81
2023/12/31 09:14:56;;;;;;;3.28;1.40;;;8.90;99.90;;;;;;4117898;28;20104;-82
2023/12/31 09:17:01;;;;;;;2.50;1.40;;;8.70;99.90;;;;;;4124372;28;20046;-83
2023/12/31 09:19:02;;;;;;;1.85;1.08;;;8.70;99.90;;;;;;4137836;28;20415;-81
2023/12/31 09:21:03;;;;;;;3.17;1.35;;;9.20;99.90;;;;;;4145926;28;20277;-82
2023/12/31 09:23:03;;;;;;;2.88;1.48;;;8.70;99.90;;;;;;4148224;28;20065;-82
2023/12/31 09:25:06;;;;;;;2.83;1.45;;;8.70;99.90;;;;;;4147458;28;20121;-82
2023/12/31 09:27:07;;;;;;;2.92;1.65;;;8.70;99.90;;;;;;4135338;28;20039;-83
2023/12/31 09:29:08;;;;;;;2.85;1.40;;;8.80;99.90;;;;;;4132469;28;20046;-82
2023/12/31 09:31:09;;;;;;;4.82;1.55;;;8.90;99.90;;;;;;4120007;28;20053;-83
2023/12/31 09:33:11;;;;;;;5.88;2.20;;;9.30;99.90;;;;;;4118345;28;20105;-83
2023/12/31 09:35:12;;;;;;;5.55;2.03;;;9.40;99.90;;;;;;4119058;28;20055;-81
2023/12/31 09:37:18;;;;;;;5.57;2.40;;;9.00;99.90;;;;;;4118005;28;20061;-82
2023/12/31 09:39:19;;;;;;;3.42;1.45;;;8.80;99.90;;;;;;4125310;28;20635;-82
2023/12/31 09:41:24;;;;;;;4.03;1.60;;;9.20;99.90;;;;;;4117070;28;20050;-83
2023/12/31 09:43:25;;;;;;;2.85;1.30;;;9.10;99.90;;;;;;4117506;28;20518;-83
2023/12/31 09:45:27;;;;;;;2.75;1.77;;;9.10;99.90;;;;;;4117315;28;20046;-83
2023/12/31 09:47:28;;;;;;;3.08;1.95;;;9.00;99.90;;;;;;4117442;28;20043;-82
2023/12/31 09:49:30;;;;;;;2.10;1.20;;;9.30;99.90;;;;;;4099879;29;20054;-82
2023/12/31 09:51:32;;;;;;;3.85;1.63;;;9.30;99.90;;;;;;4118807;28;20423;-82
2023/12/31 09:53:34;;;;;;;5.35;2.25;;;8.80;99.90;;;;;;4129331;28;20060;-83
2023/12/31 09:55:36;;;;;;;4.30;1.52;;;9.30;99.90;;;;;;4123649;28;20054;-81
2023/12/31 09:57:37;;;;;;;2.38;1.67;;;8.80;99.90;;;;;;4116798;28;20083;-82
2023/12/31 09:59:39;;;;;;;3.55;1.75;;;8.80;99.90;;;;;;4116980;28;20050;-81
2023/12/31 10:01:42;;;;;;;2.63;1.50;;;9.10;99.90;;;;;;4116572;28;20061;-81
2023/12/31 10:03:46;;;;;;;3.47;1.90;;;9.30;99.90;;;;;;4124507;28;20166;-82
2023/12/31 10:05:51;;;;;;;2.00;1.30;;;9.50;99.90;;;;;;4132603;28;20122;-82
2023/12/31 10:07:55;;;;;;;3.40;1.38;;;9.30;99.90;;;;;;4115104;28;20050;-82
2023/12/31 10:10:00;;;;;;;2.58;1.40;;;9.00;99.90;;;;;;4113770;28;20407;-81
2023/12/31 10:12:00;;;;;;;5.40;2.13;;;9.40;99.90;;;;;;4115270;28;20113;-81
2023/12/31 10:14:01;;;;;;;3.40;1.58;;;9.00;99.90;;;;;;4132168;28;20451;-81
2023/12/31 10:16:12;;;;;;;4.85;1.45;;;9.40;99.90;;;;;;4132199;28;20085;-81
2023/12/31 10:18:13;;;;;;;2.55;1.63;;;9.00;99.90;;;;;;4132374;28;20053;-82
2023/12/31 10:20:13;;;;;;;2.60;1.30;;;9.10;99.90;;;;;;4132030;28;20511;-81
2023/12/31 10:22:14;;;;;;;3.60;1.65;;;9.30;99.90;;;;;;4132237;28;20138;-81
2023/12/31 10:24:24;;;;;;;3.20;1.50;;;9.40;99.90;;;;;;4131695;28;20030;-81
2023/12/31 10:26:24;;;;;;;2.97;1.55;;;9.10;99.90;;;;;;4131907;28;20506;-81
2023/12/31 10:28:27;;;;;;;7.40;2.20;;;9.60;99.90;;;;;;4132159;28;20038;-82
2023/12/31 10:30:28;;;;;;;3.65;1.45;;;9.30;99.90;;;;;;4132270;28;20057;-82
2023/12/31 10:32:29;;;;;;;3.85;2.08;;;9.30;99.90;;;;;;4132192;28;20499;-82
2023/12/31 10:34:30;;;;;;;6.85;2.67;;;9.50;99.90;;;;;;4132089;28;20046;-83
2023/12/31 10:36:31;;;;;;;2.83;1.55;;;9.70;99.90;;;;;;4122154;28;20082;-81
2023/12/31 10:38:49;;;;;;;4.97;1.67;;;9.60;99.90;;;;;;4130430;28;20104;-81
2023/12/31 10:40:49;;;;;;;3.35;1.98;;;9.20;99.90;;;;;;4130414;28;20046;-81